KEVW/EVW METAR and TAF weather

Enter ICAO airport designator
Station Type Date Time Source
KEVW METAR 2020/04/05 20:53 UTC NOAA

KEVW 052053Z AUTO 22024G36KT 10SM FEW055 12/M03 A2973 RMK AO2 PK WND 23037/2021 SLP020 T01171033 58014


Station Type Date Time Source
KEVW Decoded METAR 2020/04/05 20:53 UTC NOAA

EVANSTON-UINTA COUNTY FIELD, WY, United States (KEVW) 41-16N 111-02W 2177M
Apr 05, 2020 - 04:53 PM EDT / 2020.04.05 2053 UTC
Wind: from the SW (220 degrees) at 28 MPH (24 KT) gusting to 41 MPH (36 KT):0
Visibility: 10 mile(s):0
Sky conditions: mostly clear
Temperature: 53.1 F (11.7 C)
Dew Point: 26.1 F (-3.3 C)
Relative Humidity: 34%
Pressure (altimeter): 29.73 in. Hg (1006 hPa)
Pressure tendency: 0.04 inches (1.4 hPa) lower than three hours ago
ob: KEVW 052053Z AUTO 22024G36KT 10SM FEW055 12/M03 A2973 RMK AO2 PK WND 23037/2021 SLP020 T01171033 58014
cycle: 21

Station Type Date Time Source
KEVW TAF 2020/04/05 22:51 UTC NOAA

TAF
AMD KEVW 052149Z 0522/0618 22025G35KT P6SM VCSH SCT020 BKN040
FM060300 19012KT P6SM SCT050 BKN100

Example: see airport list